»·PEaware :: N1001K KSMX-KBFL

N1001K :: KSMX-KBFL

FLIGHT INFORMATION

Flight Status: Arrived
Operator: Privately registered:
United States
More flights under this callsign
Pilot: Brent M. (20569)
Aircraft: Unknown
(GX)
More flights by this aircraft type
Origin: KSMX Santa Maria Pub/Capt Hancock
United States
Destination: KBFL Meadows
United States
More flights between these airports :: More routes between these airports
Route:
File this flight plan on PilotEdge
Remarks: will disable cluds for departure for VFR conditions
Altitude:
(Current/Filed)
5,500ft
Speed:
(Current/Filed)
120kts
Departed: 26-Sep-18 08:00 PM
Arrived: 26-Sep-18 08:51 PM
Distance/Time
Traveled:
76nm/0:50
Distance/Time
To Go:
Arrived

Flight Plot

Page will automatically refresh every two minutes.


Map Options




Map Legend


Flown Route
Filed Route
Departure Airport
Arrival Airport
Navaid (VOR, NDB)
Fix

Horizontal Profiles

Position Reports

Time Latitude Longitude Heading Altitude Ground
Speed
26-Sep-18 19:43 34.896798 -120.446102 270 264ft 0kts
26-Sep-18 19:44 34.896798 -120.446102 270 264ft 0kts
26-Sep-18 19:45 34.896798 -120.446102 270 264ft 0kts
26-Sep-18 19:46 34.896798 -120.446102 270 264ft 0kts
26-Sep-18 19:47 34.896798 -120.446102 270 264ft 0kts
26-Sep-18 19:48 34.896798 -120.446102 270 264ft 0kts
26-Sep-18 19:49 34.896798 -120.446102 270 264ft 0kts
26-Sep-18 19:50 34.896798 -120.446102 270 264ft 0kts
26-Sep-18 19:51 34.896798 -120.446102 270 264ft 0kts
26-Sep-18 19:52 34.896798 -120.446102 270 264ft 0kts
26-Sep-18 19:53 34.896798 -120.446102 270 264ft 0kts
26-Sep-18 19:54 34.896798 -120.446102 270 264ft 0kts
26-Sep-18 19:55 34.896798 -120.446102 270 264ft 0kts
26-Sep-18 19:56 34.896449 -120.446311 147 264ft 6kts
26-Sep-18 19:57 34.894806 -120.445127 229 264ft 8kts
26-Sep-18 19:58 34.893415 -120.444931 345 264ft 1kts
26-Sep-18 19:59 34.893431 -120.444943 319 264ft 0kts
26-Sep-18 20:00 34.893420 -120.445109 219 264ft 4kts
26-Sep-18 20:01 34.893317 -120.446507 316 264ft 23kts
26-Sep-18 20:02 34.907496 -120.450008 40 1535ft 88kts
26-Sep-18 20:03 34.916107 -120.426978 65 3062ft 72kts
26-Sep-18 20:04 34.920775 -120.402274 76 4524ft 81kts
26-Sep-18 20:05 34.924036 -120.375744 83 5771ft 97kts
26-Sep-18 20:06 34.924744 -120.346661 85 5637ft 115kts
26-Sep-18 20:07 34.935990 -120.314964 347 5514ft 99kts
26-Sep-18 20:08 34.949184 -120.296897 80 5516ft 107kts
26-Sep-18 20:09 34.958615 -120.263216 66 5515ft 106kts
26-Sep-18 20:10 34.968453 -120.232515 66 5514ft 97kts
26-Sep-18 20:11 34.979729 -120.203970 63 5515ft 94kts
26-Sep-18 20:12 34.990653 -120.176234 63 5515ft 95kts
26-Sep-18 20:13 35.001921 -120.147628 63 5515ft 95kts
26-Sep-18 20:14 35.013141 -120.119142 63 5515ft 95kts
26-Sep-18 20:15 35.026492 -120.085921 62 5515ft 95kts
26-Sep-18 20:16 35.033412 -120.060931 86 5350ft 97kts
26-Sep-18 20:17 35.036075 -120.028284 63 5476ft 92kts
26-Sep-18 20:18 35.044738 -119.995505 76 5506ft 106kts
26-Sep-18 20:19 35.054129 -119.961537 64 5549ft 107kts
26-Sep-18 20:20 35.069213 -119.931235 48 5651ft 105kts
26-Sep-18 20:21 35.088818 -119.904835 55 5555ft 107kts
26-Sep-18 20:22 35.089596 -119.872872 96 5175ft 108kts
26-Sep-18 20:23 35.097141 -119.839572 72 5035ft 104kts
26-Sep-18 20:24 35.108069 -119.808716 47 5454ft 106kts
26-Sep-18 20:25 35.129726 -119.781950 55 5522ft 117kts
26-Sep-18 20:26 35.146534 -119.749574 51 5250ft 117kts
26-Sep-18 20:27 35.163587 -119.717720 65 4978ft 113kts
26-Sep-18 20:28 35.177435 -119.686845 52 4793ft 104kts
26-Sep-18 20:29 35.197831 -119.663438 35 4864ft 101kts
26-Sep-18 20:30 35.211818 -119.636310 73 5547ft 90kts
26-Sep-18 20:31 35.218426 -119.605894 74 5796ft 112kts
26-Sep-18 20:32 35.229512 -119.573437 62 5488ft 96kts
26-Sep-18 20:33 35.241494 -119.545922 62 5494ft 93kts
26-Sep-18 20:34 35.253021 -119.519441 62 5494ft 93kts
26-Sep-18 20:35 35.264888 -119.491829 62 5495ft 96kts
26-Sep-18 20:36 35.276969 -119.463676 62 5494ft 99kts
26-Sep-18 20:37 35.289075 -119.435463 62 5493ft 99kts
26-Sep-18 20:38 35.301450 -119.406625 62 5493ft 99kts
26-Sep-18 20:39 35.313727 -119.378017 62 5493ft 99kts
26-Sep-18 20:40 35.325983 -119.349460 62 5493ft 99kts
26-Sep-18 20:41 35.338544 -119.320198 62 5493ft 99kts
26-Sep-18 20:42 35.350414 -119.289278 68 4919ft 102kts
26-Sep-18 20:43 35.360231 -119.258382 67 4215ft 102kts
26-Sep-18 20:44 35.371763 -119.227504 62 3493ft 98kts
26-Sep-18 20:45 35.383801 -119.198000 62 3498ft 96kts
26-Sep-18 20:46 35.394599 -119.171473 64 3493ft 81kts
26-Sep-18 20:47 35.392975 -119.141138 91 2716ft 96kts
26-Sep-18 20:48 35.391083 -119.108459 91 1715ft 99kts
26-Sep-18 20:49 35.386902 -119.077173 111 1618ft 96kts
26-Sep-18 20:50 35.393779 -119.051988 40 1245ft 77kts
26-Sep-18 20:51 35.410850 -119.036419 7 1268ft 84kts
26-Sep-18 20:52 35.426419 -119.047318 320 740ft 57kts
26-Sep-18 20:53 35.435448 -119.058075 327 497ft 12kts
26-Sep-18 20:54 35.436289 -119.057802 65 497ft 0kts
26-Sep-18 20:55 35.436291 -119.057796 64 497ft 1kts
26-Sep-18 20:56 35.434586 -119.054877 131 497ft 17kts
26-Sep-18 20:57 35.431828 -119.051652 140 497ft 15kts
26-Sep-18 20:58 35.428841 -119.046772 60 497ft 7kts
26-Sep-18 20:59 35.429477 -119.046543 317 497ft 0kts

Navigation Log

Ident Type
1. KSMX Airport
2. KBFL Airport